sensor_id;sensor_type;location;lat;lon;timestamp;P1;durP1;ratioP1;P2;durP2;ratioP2
43142;SDS011;28750;59.842;17.584;2022-12-18T00:01:17;28.73;;;14.90;;
43142;SDS011;28750;59.842;17.584;2022-12-18T00:03:53;35.05;;;17.10;;
43142;SDS011;28750;59.842;17.584;2022-12-18T00:06:21;31.63;;;12.73;;
43142;SDS011;28750;59.842;17.584;2022-12-18T00:08:49;48.92;;;18.88;;
43142;SDS011;28750;59.842;17.584;2022-12-18T00:11:20;30.23;;;15.15;;
43142;SDS011;28750;59.842;17.584;2022-12-18T00:13:49;36.80;;;15.98;;
43142;SDS011;28750;59.842;17.584;2022-12-18T00:16:17;26.88;;;12.90;;
43142;SDS011;28750;59.842;17.584;2022-12-18T00:18:47;34.28;;;15.95;;
43142;SDS011;28750;59.842;17.584;2022-12-18T00:21:14;32.05;;;15.05;;
43142;SDS011;28750;59.842;17.584;2022-12-18T00:23:42;36.53;;;17.33;;
43142;SDS011;28750;59.842;17.584;2022-12-18T00:26:14;32.10;;;13.48;;
43142;SDS011;28750;59.842;17.584;2022-12-18T00:28:43;38.80;;;15.75;;
43142;SDS011;28750;59.842;17.584;2022-12-18T00:31:12;37.95;;;16.33;;
43142;SDS011;28750;59.842;17.584;2022-12-18T00:33:44;33.38;;;15.40;;
43142;SDS011;28750;59.842;17.584;2022-12-18T00:36:18;35.03;;;15.20;;
43142;SDS011;28750;59.842;17.584;2022-12-18T00:38:47;32.63;;;16.27;;
43142;SDS011;28750;59.842;17.584;2022-12-18T00:41:14;34.15;;;16.42;;
43142;SDS011;28750;59.842;17.584;2022-12-18T00:44:04;33.58;;;14.93;;
43142;SDS011;28750;59.842;17.584;2022-12-18T00:46:32;29.38;;;14.25;;
43142;SDS011;28750;59.842;17.584;2022-12-18T00:48:59;35.60;;;15.43;;
43142;SDS011;28750;59.842;17.584;2022-12-18T00:51:26;29.92;;;13.40;;
43142;SDS011;28750;59.842;17.584;2022-12-18T00:53:53;33.33;;;15.65;;
43142;SDS011;28750;59.842;17.584;2022-12-18T00:56:20;45.88;;;17.45;;
43142;SDS011;28750;59.842;17.584;2022-12-18T00:58:47;36.28;;;17.45;;
43142;SDS011;28750;59.842;17.584;2022-12-18T01:01:14;29.95;;;14.27;;
43142;SDS011;28750;59.842;17.584;2022-12-18T01:03:41;37.95;;;12.75;;
43142;SDS011;28750;59.842;17.584;2022-12-18T01:06:10;31.33;;;14.10;;
43142;SDS011;28750;59.842;17.584;2022-12-18T01:08:39;32.22;;;13.15;;
43142;SDS011;28750;59.842;17.584;2022-12-18T01:11:09;37.33;;;15.07;;
43142;SDS011;28750;59.842;17.584;2022-12-18T01:13:39;37.08;;;14.30;;
43142;SDS011;28750;59.842;17.584;2022-12-18T01:16:06;33.80;;;16.58;;
43142;SDS011;28750;59.842;17.584;2022-12-18T01:18:34;28.20;;;13.82;;
43142;SDS011;28750;59.842;17.584;2022-12-18T01:21:05;31.75;;;15.70;;
43142;SDS011;28750;59.842;17.584;2022-12-18T01:23:35;32.10;;;14.75;;
43142;SDS011;28750;59.842;17.584;2022-12-18T01:26:10;35.63;;;15.90;;
43142;SDS011;28750;59.842;17.584;2022-12-18T01:28:39;28.92;;;13.80;;
43142;SDS011;28750;59.842;17.584;2022-12-18T01:31:26;30.95;;;13.93;;
43142;SDS011;28750;59.842;17.584;2022-12-18T01:33:55;31.63;;;14.27;;
43142;SDS011;28750;59.842;17.584;2022-12-18T01:38:51;35.22;;;16.17;;
43142;SDS011;28750;59.842;17.584;2022-12-18T01:41:20;26.38;;;13.27;;
43142;SDS011;28750;59.842;17.584;2022-12-18T01:47:26;26.80;;;13.23;;
43142;SDS011;28750;59.842;17.584;2022-12-18T01:50:02;29.67;;;14.40;;
43142;SDS011;28750;59.842;17.584;2022-12-18T01:52:35;28.60;;;13.50;;
43142;SDS011;28750;59.842;17.584;2022-12-18T01:55:03;29.13;;;12.38;;
43142;SDS011;28750;59.842;17.584;2022-12-18T01:57:31;30.45;;;11.98;;
43142;SDS011;28750;59.842;17.584;2022-12-18T02:00:04;29.10;;;13.88;;
43142;SDS011;28750;59.842;17.584;2022-12-18T02:02:33;26.90;;;13.35;;
43142;SDS011;28750;59.842;17.584;2022-12-18T02:05:02;32.22;;;14.45;;
43142;SDS011;28750;59.842;17.584;2022-12-18T02:15:57;25.27;;;11.20;;
43142;SDS011;28750;59.842;17.584;2022-12-18T02:18:28;20.98;;;11.38;;
43142;SDS011;28750;59.842;17.584;2022-12-18T02:26:45;22.92;;;10.50;;
43142;SDS011;28750;59.842;17.584;2022-12-18T02:29:17;14.93;;;8.60;;
43142;SDS011;28750;59.842;17.584;2022-12-18T02:31:54;19.50;;;9.35;;
43142;SDS011;28750;59.842;17.584;2022-12-18T02:34:29;18.20;;;8.30;;
43142;SDS011;28750;59.842;17.584;2022-12-18T02:36:59;16.40;;;8.20;;
43142;SDS011;28750;59.842;17.584;2022-12-18T02:39:30;18.02;;;9.25;;
43142;SDS011;28750;59.842;17.584;2022-12-18T02:42:00;23.92;;;11.15;;
43142;SDS011;28750;59.842;17.584;2022-12-18T02:44:43;20.85;;;9.93;;
43142;SDS011;28750;59.842;17.584;2022-12-18T02:47:16;18.77;;;9.73;;
43142;SDS011;28750;59.842;17.584;2022-12-18T03:03:29;16.35;;;9.25;;
43142;SDS011;28750;59.842;17.584;2022-12-18T03:06:04;19.60;;;9.80;;
43142;SDS011;28750;59.842;17.584;2022-12-18T03:08:41;16.23;;;8.43;;
43142;SDS011;28750;59.842;17.584;2022-12-18T03:11:11;19.95;;;9.68;;
43142;SDS011;28750;59.842;17.584;2022-12-18T03:13:58;19.33;;;8.88;;
43142;SDS011;28750;59.842;17.584;2022-12-18T03:16:28;19.95;;;10.18;;
43142;SDS011;28750;59.842;17.584;2022-12-18T03:19:01;23.67;;;11.10;;
43142;SDS011;28750;59.842;17.584;2022-12-18T03:21:43;17.67;;;9.85;;
43142;SDS011;28750;59.842;17.584;2022-12-18T03:24:16;19.40;;;9.20;;
43142;SDS011;28750;59.842;17.584;2022-12-18T03:26:46;20.77;;;10.50;;
43142;SDS011;28750;59.842;17.584;2022-12-18T03:29:18;19.83;;;9.25;;
43142;SDS011;28750;59.842;17.584;2022-12-18T03:31:54;23.38;;;11.85;;
43142;SDS011;28750;59.842;17.584;2022-12-18T03:34:32;18.33;;;8.70;;
43142;SDS011;28750;59.842;17.584;2022-12-18T03:37:00;22.15;;;11.52;;
43142;SDS011;28750;59.842;17.584;2022-12-18T03:39:28;19.83;;;9.70;;
43142;SDS011;28750;59.842;17.584;2022-12-18T03:41:56;21.02;;;10.57;;
43142;SDS011;28750;59.842;17.584;2022-12-18T03:49:28;21.80;;;10.77;;
43142;SDS011;28750;59.842;17.584;2022-12-18T03:54:50;19.17;;;9.82;;
43142;SDS011;28750;59.842;17.584;2022-12-18T03:57:20;20.88;;;11.07;;
43142;SDS011;28750;59.842;17.584;2022-12-18T03:59:50;24.38;;;11.38;;
43142;SDS011;28750;59.842;17.584;2022-12-18T04:02:22;19.60;;;10.60;;
43142;SDS011;28750;59.842;17.584;2022-12-18T04:04:51;21.98;;;9.52;;
43142;SDS011;28750;59.842;17.584;2022-12-18T04:07:21;19.17;;;10.52;;
43142;SDS011;28750;59.842;17.584;2022-12-18T04:09:50;20.65;;;10.02;;
43142;SDS011;28750;59.842;17.584;2022-12-18T04:12:25;26.67;;;12.27;;
43142;SDS011;28750;59.842;17.584;2022-12-18T04:14:52;20.70;;;9.65;;
43142;SDS011;28750;59.842;17.584;2022-12-18T04:17:19;25.65;;;12.07;;
43142;SDS011;28750;59.842;17.584;2022-12-18T04:19:46;21.10;;;10.23;;
43142;SDS011;28750;59.842;17.584;2022-12-18T04:22:13;23.35;;;11.27;;
43142;SDS011;28750;59.842;17.584;2022-12-18T04:24:40;23.42;;;10.45;;
43142;SDS011;28750;59.842;17.584;2022-12-18T04:27:07;22.63;;;10.40;;
43142;SDS011;28750;59.842;17.584;2022-12-18T04:29:34;16.52;;;8.93;;
43142;SDS011;28750;59.842;17.584;2022-12-18T04:32:01;22.58;;;11.70;;
43142;SDS011;28750;59.842;17.584;2022-12-18T04:34:28;22.83;;;11.35;;
43142;SDS011;28750;59.842;17.584;2022-12-18T04:36:55;24.55;;;12.68;;
43142;SDS011;28750;59.842;17.584;2022-12-18T04:39:22;27.92;;;13.32;;
43142;SDS011;28750;59.842;17.584;2022-12-18T04:41:49;24.70;;;11.98;;
43142;SDS011;28750;59.842;17.584;2022-12-18T04:44:17;26.05;;;12.25;;
43142;SDS011;28750;59.842;17.584;2022-12-18T04:46:44;21.63;;;10.80;;
43142;SDS011;28750;59.842;17.584;2022-12-18T04:49:11;21.73;;;9.57;;
43142;SDS011;28750;59.842;17.584;2022-12-18T04:51:38;21.98;;;11.38;;
43142;SDS011;28750;59.842;17.584;2022-12-18T04:54:05;22.02;;;10.80;;
43142;SDS011;28750;59.842;17.584;2022-12-18T04:56:32;20.08;;;9.40;;
43142;SDS011;28750;59.842;17.584;2022-12-18T04:58:58;19.77;;;10.18;;
43142;SDS011;28750;59.842;17.584;2022-12-18T05:01:25;17.80;;;9.90;;
43142;SDS011;28750;59.842;17.584;2022-12-18T05:03:53;19.58;;;8.75;;
43142;SDS011;28750;59.842;17.584;2022-12-18T05:06:20;19.95;;;9.35;;
43142;SDS011;28750;59.842;17.584;2022-12-18T05:08:46;16.80;;;8.25;;
43142;SDS011;28750;59.842;17.584;2022-12-18T05:11:14;16.60;;;9.98;;
43142;SDS011;28750;59.842;17.584;2022-12-18T05:13:42;16.95;;;9.75;;
43142;SDS011;28750;59.842;17.584;2022-12-18T05:16:10;16.17;;;8.32;;
43142;SDS011;28750;59.842;17.584;2022-12-18T05:18:38;18.80;;;10.30;;
43142;SDS011;28750;59.842;17.584;2022-12-18T05:21:05;17.85;;;10.35;;
43142;SDS011;28750;59.842;17.584;2022-12-18T05:23:32;22.55;;;10.77;;
43142;SDS011;28750;59.842;17.584;2022-12-18T05:26:01;16.73;;;9.10;;
43142;SDS011;28750;59.842;17.584;2022-12-18T05:28:31;17.92;;;9.35;;
43142;SDS011;28750;59.842;17.584;2022-12-18T05:31:00;20.15;;;9.35;;
43142;SDS011;28750;59.842;17.584;2022-12-18T05:33:29;19.60;;;9.18;;
43142;SDS011;28750;59.842;17.584;2022-12-18T05:35:59;16.38;;;9.57;;
43142;SDS011;28750;59.842;17.584;2022-12-18T05:38:28;21.85;;;10.65;;
43142;SDS011;28750;59.842;17.584;2022-12-18T05:40:57;18.90;;;9.10;;
43142;SDS011;28750;59.842;17.584;2022-12-18T05:43:25;13.95;;;8.35;;
43142;SDS011;28750;59.842;17.584;2022-12-18T05:45:54;16.17;;;8.57;;
43142;SDS011;28750;59.842;17.584;2022-12-18T05:48:21;15.98;;;8.52;;
43142;SDS011;28750;59.842;17.584;2022-12-18T05:50:49;18.92;;;10.20;;
43142;SDS011;28750;59.842;17.584;2022-12-18T05:53:18;15.00;;;9.13;;
43142;SDS011;28750;59.842;17.584;2022-12-18T05:55:46;17.25;;;8.45;;
43142;SDS011;28750;59.842;17.584;2022-12-18T05:58:14;18.25;;;9.45;;
43142;SDS011;28750;59.842;17.584;2022-12-18T06:00:42;16.90;;;8.82;;
43142;SDS011;28750;59.842;17.584;2022-12-18T06:03:10;19.15;;;9.15;;
43142;SDS011;28750;59.842;17.584;2022-12-18T06:05:40;17.67;;;8.75;;
43142;SDS011;28750;59.842;17.584;2022-12-18T06:08:10;15.43;;;8.13;;
43142;SDS011;28750;59.842;17.584;2022-12-18T06:10:38;21.33;;;10.57;;
43142;SDS011;28750;59.842;17.584;2022-12-18T06:13:06;21.75;;;11.10;;
43142;SDS011;28750;59.842;17.584;2022-12-18T06:15:35;15.30;;;8.30;;
43142;SDS011;28750;59.842;17.584;2022-12-18T06:18:03;17.50;;;8.00;;
43142;SDS011;28750;59.842;17.584;2022-12-18T06:20:30;16.38;;;8.13;;
43142;SDS011;28750;59.842;17.584;2022-12-18T06:22:57;15.77;;;8.98;;
43142;SDS011;28750;59.842;17.584;2022-12-18T06:25:24;17.38;;;9.18;;
43142;SDS011;28750;59.842;17.584;2022-12-18T06:27:51;19.85;;;8.27;;
43142;SDS011;28750;59.842;17.584;2022-12-18T06:30:18;17.40;;;9.65;;
43142;SDS011;28750;59.842;17.584;2022-12-18T06:32:46;15.70;;;9.05;;
43142;SDS011;28750;59.842;17.584;2022-12-18T06:35:15;16.27;;;8.00;;
43142;SDS011;28750;59.842;17.584;2022-12-18T06:37:42;14.82;;;7.72;;
43142;SDS011;28750;59.842;17.584;2022-12-18T06:40:09;19.55;;;9.73;;
43142;SDS011;28750;59.842;17.584;2022-12-18T06:42:36;20.05;;;9.20;;
43142;SDS011;28750;59.842;17.584;2022-12-18T06:45:03;19.92;;;9.05;;
43142;SDS011;28750;59.842;17.584;2022-12-18T06:47:30;16.20;;;9.15;;
43142;SDS011;28750;59.842;17.584;2022-12-18T06:49:57;18.67;;;9.02;;
43142;SDS011;28750;59.842;17.584;2022-12-18T06:52:24;20.15;;;10.00;;
43142;SDS011;28750;59.842;17.584;2022-12-18T06:54:51;19.60;;;8.85;;
43142;SDS011;28750;59.842;17.584;2022-12-18T06:57:17;19.38;;;9.43;;
43142;SDS011;28750;59.842;17.584;2022-12-18T06:59:44;17.38;;;8.93;;
43142;SDS011;28750;59.842;17.584;2022-12-18T07:02:11;19.02;;;9.23;;
43142;SDS011;28750;59.842;17.584;2022-12-18T07:04:39;20.38;;;9.90;;
43142;SDS011;28750;59.842;17.584;2022-12-18T07:07:06;18.83;;;9.73;;
43142;SDS011;28750;59.842;17.584;2022-12-18T07:09:32;19.63;;;9.20;;
43142;SDS011;28750;59.842;17.584;2022-12-18T07:11:59;20.10;;;11.63;;
43142;SDS011;28750;59.842;17.584;2022-12-18T07:14:26;17.65;;;8.70;;
43142;SDS011;28750;59.842;17.584;2022-12-18T07:16:54;18.52;;;9.18;;
43142;SDS011;28750;59.842;17.584;2022-12-18T07:19:21;16.33;;;8.52;;
43142;SDS011;28750;59.842;17.584;2022-12-18T07:21:49;17.13;;;9.23;;
43142;SDS011;28750;59.842;17.584;2022-12-18T07:24:16;14.75;;;8.40;;
43142;SDS011;28750;59.842;17.584;2022-12-18T07:26:45;17.33;;;8.85;;
43142;SDS011;28750;59.842;17.584;2022-12-18T07:29:12;19.45;;;9.38;;
43142;SDS011;28750;59.842;17.584;2022-12-18T07:31:39;15.45;;;8.10;;
43142;SDS011;28750;59.842;17.584;2022-12-18T07:34:09;22.60;;;9.02;;
43142;SDS011;28750;59.842;17.584;2022-12-18T07:36:40;19.98;;;10.77;;
43142;SDS011;28750;59.842;17.584;2022-12-18T07:39:08;18.90;;;10.23;;
43142;SDS011;28750;59.842;17.584;2022-12-18T07:41:36;20.60;;;8.30;;
43142;SDS011;28750;59.842;17.584;2022-12-18T07:44:09;16.67;;;8.60;;
43142;SDS011;28750;59.842;17.584;2022-12-18T07:46:36;15.45;;;8.43;;
43142;SDS011;28750;59.842;17.584;2022-12-18T07:49:04;17.08;;;8.77;;
43142;SDS011;28750;59.842;17.584;2022-12-18T07:51:31;15.38;;;8.25;;
43142;SDS011;28750;59.842;17.584;2022-12-18T07:53:58;19.92;;;8.55;;
43142;SDS011;28750;59.842;17.584;2022-12-18T07:56:24;19.15;;;9.70;;
43142;SDS011;28750;59.842;17.584;2022-12-18T07:58:51;20.27;;;9.32;;
43142;SDS011;28750;59.842;17.584;2022-12-18T08:01:18;18.50;;;8.98;;
43142;SDS011;28750;59.842;17.584;2022-12-18T08:03:45;19.23;;;10.90;;
43142;SDS011;28750;59.842;17.584;2022-12-18T08:06:12;22.65;;;10.10;;
43142;SDS011;28750;59.842;17.584;2022-12-18T08:08:39;18.40;;;10.07;;
43142;SDS011;28750;59.842;17.584;2022-12-18T08:11:07;19.98;;;10.50;;
43142;SDS011;28750;59.842;17.584;2022-12-18T08:13:34;19.42;;;9.52;;
43142;SDS011;28750;59.842;17.584;2022-12-18T08:16:02;19.38;;;9.95;;
43142;SDS011;28750;59.842;17.584;2022-12-18T08:18:34;17.17;;;9.18;;
43142;SDS011;28750;59.842;17.584;2022-12-18T08:21:22;17.33;;;9.15;;
43142;SDS011;28750;59.842;17.584;2022-12-18T08:23:52;21.00;;;9.90;;
43142;SDS011;28750;59.842;17.584;2022-12-18T08:26:21;18.20;;;9.25;;
43142;SDS011;28750;59.842;17.584;2022-12-18T08:28:49;19.33;;;11.73;;
43142;SDS011;28750;59.842;17.584;2022-12-18T08:31:19;22.00;;;10.43;;
43142;SDS011;28750;59.842;17.584;2022-12-18T08:33:50;20.08;;;10.35;;
43142;SDS011;28750;59.842;17.584;2022-12-18T08:36:19;23.38;;;9.90;;
43142;SDS011;28750;59.842;17.584;2022-12-18T08:38:46;19.30;;;10.32;;
43142;SDS011;28750;59.842;17.584;2022-12-18T08:41:14;19.63;;;9.77;;
43142;SDS011;28750;59.842;17.584;2022-12-18T08:43:42;17.35;;;9.70;;
43142;SDS011;28750;59.842;17.584;2022-12-18T08:46:27;20.02;;;9.85;;
43142;SDS011;28750;59.842;17.584;2022-12-18T08:48:58;24.08;;;10.07;;
43142;SDS011;28750;59.842;17.584;2022-12-18T08:51:25;17.75;;;9.23;;
43142;SDS011;28750;59.842;17.584;2022-12-18T08:53:52;21.92;;;10.27;;
43142;SDS011;28750;59.842;17.584;2022-12-18T08:56:19;19.38;;;8.95;;
43142;SDS011;28750;59.842;17.584;2022-12-18T08:58:46;24.58;;;10.18;;
43142;SDS011;28750;59.842;17.584;2022-12-18T09:01:13;23.80;;;10.65;;
43142;SDS011;28750;59.842;17.584;2022-12-18T09:03:40;17.90;;;9.52;;
43142;SDS011;28750;59.842;17.584;2022-12-18T09:06:07;17.73;;;9.63;;
43142;SDS011;28750;59.842;17.584;2022-12-18T09:08:35;22.40;;;11.32;;
43142;SDS011;28750;59.842;17.584;2022-12-18T09:11:02;20.42;;;10.63;;
43142;SDS011;28750;59.842;17.584;2022-12-18T09:13:29;26.23;;;11.13;;
43142;SDS011;28750;59.842;17.584;2022-12-18T09:15:56;23.70;;;10.57;;
43142;SDS011;28750;59.842;17.584;2022-12-18T09:18:23;19.00;;;10.73;;
43142;SDS011;28750;59.842;17.584;2022-12-18T09:20:51;26.00;;;10.90;;
43142;SDS011;28750;59.842;17.584;2022-12-18T09:23:18;21.23;;;10.63;;
43142;SDS011;28750;59.842;17.584;2022-12-18T09:25:45;19.38;;;10.35;;
43142;SDS011;28750;59.842;17.584;2022-12-18T09:28:13;19.65;;;9.65;;
43142;SDS011;28750;59.842;17.584;2022-12-18T09:30:42;19.63;;;9.60;;
43142;SDS011;28750;59.842;17.584;2022-12-18T09:33:11;19.63;;;10.23;;
43142;SDS011;28750;59.842;17.584;2022-12-18T09:35:38;20.48;;;10.80;;
43142;SDS011;28750;59.842;17.584;2022-12-18T09:38:06;19.13;;;10.38;;
43142;SDS011;28750;59.842;17.584;2022-12-18T09:40:49;18.50;;;10.40;;
43142;SDS011;28750;59.842;17.584;2022-12-18T09:44:05;21.45;;;10.57;;
43142;SDS011;28750;59.842;17.584;2022-12-18T09:46:11;20.70;;;10.82;;
43142;SDS011;28750;59.842;17.584;2022-12-18T09:48:46;19.52;;;10.10;;
43142;SDS011;28750;59.842;17.584;2022-12-18T09:51:19;20.08;;;11.15;;
43142;SDS011;28750;59.842;17.584;2022-12-18T09:53:56;18.48;;;8.68;;
43142;SDS011;28750;59.842;17.584;2022-12-18T09:56:28;17.40;;;8.73;;
43142;SDS011;28750;59.842;17.584;2022-12-18T09:59:02;21.42;;;9.07;;
43142;SDS011;28750;59.842;17.584;2022-12-18T10:01:31;20.15;;;10.50;;
43142;SDS011;28750;59.842;17.584;2022-12-18T10:03:58;21.85;;;9.48;;
43142;SDS011;28750;59.842;17.584;2022-12-18T10:07:00;19.15;;;9.40;;
43142;SDS011;28750;59.842;17.584;2022-12-18T10:09:29;20.83;;;9.70;;
43142;SDS011;28750;59.842;17.584;2022-12-18T10:20:13;17.10;;;9.55;;
43142;SDS011;28750;59.842;17.584;2022-12-18T10:28:21;21.50;;;10.70;;
43142;SDS011;28750;59.842;17.584;2022-12-18T10:30:50;18.58;;;9.43;;
43142;SDS011;28750;59.842;17.584;2022-12-18T10:33:18;17.13;;;8.93;;
43142;SDS011;28750;59.842;17.584;2022-12-18T10:35:48;21.70;;;10.88;;
43142;SDS011;28750;59.842;17.584;2022-12-18T10:43:26;22.45;;;10.45;;
43142;SDS011;28750;59.842;17.584;2022-12-18T10:46:15;20.08;;;10.55;;
43142;SDS011;28750;59.842;17.584;2022-12-18T10:48:55;22.70;;;11.35;;
43142;SDS011;28750;59.842;17.584;2022-12-18T10:51:30;25.02;;;9.82;;
43142;SDS011;28750;59.842;17.584;2022-12-18T10:54:00;20.02;;;9.40;;
43142;SDS011;28750;59.842;17.584;2022-12-18T10:56:35;16.92;;;9.75;;
43142;SDS011;28750;59.842;17.584;2022-12-18T11:09:33;26.10;;;10.77;;
43142;SDS011;28750;59.842;17.584;2022-12-18T11:12:05;17.70;;;8.90;;
43142;SDS011;28750;59.842;17.584;2022-12-18T11:14:45;15.75;;;8.73;;
43142;SDS011;28750;59.842;17.584;2022-12-18T11:19:54;25.48;;;9.93;;
43142;SDS011;28750;59.842;17.584;2022-12-18T11:22:30;16.20;;;8.15;;
43142;SDS011;28750;59.842;17.584;2022-12-18T11:25:05;21.05;;;9.77;;
43142;SDS011;28750;59.842;17.584;2022-12-18T11:27:39;16.80;;;9.00;;
43142;SDS011;28750;59.842;17.584;2022-12-18T11:32:58;16.17;;;7.95;;
43142;SDS011;28750;59.842;17.584;2022-12-18T11:38:26;18.65;;;8.65;;
43142;SDS011;28750;59.842;17.584;2022-12-18T11:41:00;20.58;;;8.88;;
43142;SDS011;28750;59.842;17.584;2022-12-18T11:43:32;18.13;;;7.70;;
43142;SDS011;28750;59.842;17.584;2022-12-18T11:46:09;14.45;;;7.53;;
43142;SDS011;28750;59.842;17.584;2022-12-18T11:48:49;14.48;;;7.43;;
43142;SDS011;28750;59.842;17.584;2022-12-18T11:51:43;15.32;;;6.57;;
43142;SDS011;28750;59.842;17.584;2022-12-18T11:54:15;18.00;;;8.43;;
43142;SDS011;28750;59.842;17.584;2022-12-18T11:59:46;14.93;;;6.65;;
43142;SDS011;28750;59.842;17.584;2022-12-18T12:07:59;14.18;;;6.22;;
43142;SDS011;28750;59.842;17.584;2022-12-18T12:10:56;16.15;;;6.55;;
43142;SDS011;28750;59.842;17.584;2022-12-18T12:22:00;14.63;;;6.32;;
43142;SDS011;28750;59.842;17.584;2022-12-18T12:24:56;13.63;;;6.68;;
43142;SDS011;28750;59.842;17.584;2022-12-18T12:30:35;12.70;;;5.80;;
43142;SDS011;28750;59.842;17.584;2022-12-18T12:33:26;15.02;;;7.40;;
43142;SDS011;28750;59.842;17.584;2022-12-18T12:39:08;14.05;;;5.85;;
43142;SDS011;28750;59.842;17.584;2022-12-18T12:41:39;14.25;;;6.10;;
43142;SDS011;28750;59.842;17.584;2022-12-18T12:44:27;16.08;;;5.78;;
43142;SDS011;28750;59.842;17.584;2022-12-18T12:47:06;8.80;;;4.90;;
43142;SDS011;28750;59.842;17.584;2022-12-18T12:49:40;10.98;;;5.00;;
43142;SDS011;28750;59.842;17.584;2022-12-18T12:52:14;12.68;;;4.90;;
43142;SDS011;28750;59.842;17.584;2022-12-18T12:54:44;13.55;;;4.35;;
43142;SDS011;28750;59.842;17.584;2022-12-18T12:57:21;11.10;;;4.85;;
43142;SDS011;28750;59.842;17.584;2022-12-18T13:08:25;10.45;;;3.95;;
43142;SDS011;28750;59.842;17.584;2022-12-18T13:10:58;9.55;;;4.45;;
43142;SDS011;28750;59.842;17.584;2022-12-18T13:13:49;13.20;;;3.95;;
43142;SDS011;28750;59.842;17.584;2022-12-18T13:16:19;10.90;;;3.55;;
43142;SDS011;28750;59.842;17.584;2022-12-18T13:18:52;12.32;;;3.85;;
43142;SDS011;28750;59.842;17.584;2022-12-18T13:21:26;9.52;;;3.33;;
43142;SDS011;28750;59.842;17.584;2022-12-18T13:23:55;7.00;;;2.97;;
43142;SDS011;28750;59.842;17.584;2022-12-18T13:26:32;8.00;;;3.58;;
43142;SDS011;28750;59.842;17.584;2022-12-18T13:29:00;6.70;;;2.58;;
43142;SDS011;28750;59.842;17.584;2022-12-18T13:36:45;9.68;;;2.78;;
43142;SDS011;28750;59.842;17.584;2022-12-18T13:41:40;5.72;;;2.75;;
43142;SDS011;28750;59.842;17.584;2022-12-18T13:46:47;8.63;;;3.28;;
43142;SDS011;28750;59.842;17.584;2022-12-18T13:49:23;7.47;;;2.63;;
43142;SDS011;28750;59.842;17.584;2022-12-18T13:52:14;18.27;;;2.80;;
43142;SDS011;28750;59.842;17.584;2022-12-18T13:54:50;11.20;;;3.45;;
43142;SDS011;28750;59.842;17.584;2022-12-18T13:57:29;4.97;;;2.58;;
43142;SDS011;28750;59.842;17.584;2022-12-18T13:59:59;10.05;;;3.53;;
43142;SDS011;28750;59.842;17.584;2022-12-18T14:02:45;10.57;;;2.35;;
43142;SDS011;28750;59.842;17.584;2022-12-18T14:05:26;9.70;;;2.78;;
43142;SDS011;28750;59.842;17.584;2022-12-18T14:08:00;34.55;;;18.15;;
43142;SDS011;28750;59.842;17.584;2022-12-18T14:10:44;11.15;;;3.03;;
43142;SDS011;28750;59.842;17.584;2022-12-18T14:13:30;8.77;;;2.78;;
43142;SDS011;28750;59.842;17.584;2022-12-18T14:16:00;8.65;;;1.83;;
43142;SDS011;28750;59.842;17.584;2022-12-18T14:18:32;33.28;;;3.15;;
43142;SDS011;28750;59.842;17.584;2022-12-18T14:21:19;10.40;;;2.70;;
43142;SDS011;28750;59.842;17.584;2022-12-18T14:23:49;17.08;;;3.00;;
43142;SDS011;28750;59.842;17.584;2022-12-18T14:26:30;9.85;;;2.83;;
43142;SDS011;28750;59.842;17.584;2022-12-18T14:28:59;10.15;;;2.40;;
43142;SDS011;28750;59.842;17.584;2022-12-18T14:31:41;6.25;;;1.88;;
43142;SDS011;28750;59.842;17.584;2022-12-18T14:34:14;11.75;;;2.63;;
43142;SDS011;28750;59.842;17.584;2022-12-18T14:36:51;9.30;;;2.53;;
43142;SDS011;28750;59.842;17.584;2022-12-18T14:39:21;10.77;;;2.35;;
43142;SDS011;28750;59.842;17.584;2022-12-18T14:41:49;12.88;;;2.60;;
43142;SDS011;28750;59.842;17.584;2022-12-18T14:44:16;10.15;;;2.50;;
43142;SDS011;28750;59.842;17.584;2022-12-18T14:46:46;10.82;;;2.53;;
43142;SDS011;28750;59.842;17.584;2022-12-18T14:49:23;7.13;;;2.50;;
43142;SDS011;28750;59.842;17.584;2022-12-18T14:52:03;11.65;;;2.78;;
43142;SDS011;28750;59.842;17.584;2022-12-18T14:54:46;11.35;;;2.58;;
43142;SDS011;28750;59.842;17.584;2022-12-18T14:57:28;11.38;;;3.63;;
43142;SDS011;28750;59.842;17.584;2022-12-18T15:00:07;9.73;;;2.33;;
43142;SDS011;28750;59.842;17.584;2022-12-18T15:02:42;11.70;;;3.05;;
43142;SDS011;28750;59.842;17.584;2022-12-18T15:05:19;9.07;;;2.75;;
43142;SDS011;28750;59.842;17.584;2022-12-18T15:07:48;8.13;;;2.33;;
43142;SDS011;28750;59.842;17.584;2022-12-18T15:10:18;8.57;;;2.40;;
43142;SDS011;28750;59.842;17.584;2022-12-18T15:18:04;7.05;;;2.40;;
43142;SDS011;28750;59.842;17.584;2022-12-18T15:23:28;11.23;;;2.97;;
43142;SDS011;28750;59.842;17.584;2022-12-18T15:26:06;9.60;;;2.53;;
43142;SDS011;28750;59.842;17.584;2022-12-18T15:28:54;7.68;;;2.30;;
43142;SDS011;28750;59.842;17.584;2022-12-18T15:31:26;5.30;;;1.83;;
43142;SDS011;28750;59.842;17.584;2022-12-18T15:34:13;7.47;;;2.58;;
43142;SDS011;28750;59.842;17.584;2022-12-18T15:36:46;5.10;;;2.20;;
43142;SDS011;28750;59.842;17.584;2022-12-18T15:39:13;7.57;;;2.45;;
43142;SDS011;28750;59.842;17.584;2022-12-18T15:41:40;6.32;;;2.70;;
43142;SDS011;28750;59.842;17.584;2022-12-18T15:44:27;10.73;;;1.90;;
43142;SDS011;28750;59.842;17.584;2022-12-18T15:46:53;12.40;;;2.28;;
43142;SDS011;28750;59.842;17.584;2022-12-18T15:49:20;16.67;;;2.50;;
43142;SDS011;28750;59.842;17.584;2022-12-18T15:51:51;10.27;;;2.72;;
43142;SDS011;28750;59.842;17.584;2022-12-18T15:54:20;11.32;;;1.95;;
43142;SDS011;28750;59.842;17.584;2022-12-18T15:57:11;9.68;;;2.10;;
43142;SDS011;28750;59.842;17.584;2022-12-18T15:59:54;11.85;;;1.85;;
43142;SDS011;28750;59.842;17.584;2022-12-18T16:02:23;6.50;;;1.75;;
43142;SDS011;28750;59.842;17.584;2022-12-18T16:04:51;10.18;;;2.10;;
43142;SDS011;28750;59.842;17.584;2022-12-18T16:07:19;11.73;;;2.45;;
43142;SDS011;28750;59.842;17.584;2022-12-18T16:09:46;14.27;;;2.20;;
43142;SDS011;28750;59.842;17.584;2022-12-18T16:12:21;8.88;;;1.65;;
43142;SDS011;28750;59.842;17.584;2022-12-18T16:14:50;8.63;;;1.95;;
43142;SDS011;28750;59.842;17.584;2022-12-18T16:17:17;4.93;;;1.77;;
43142;SDS011;28750;59.842;17.584;2022-12-18T16:19:45;6.82;;;2.28;;
43142;SDS011;28750;59.842;17.584;2022-12-18T16:22:24;8.68;;;1.58;;
43142;SDS011;28750;59.842;17.584;2022-12-18T16:24:56;11.43;;;1.90;;
43142;SDS011;28750;59.842;17.584;2022-12-18T16:27:24;8.30;;;2.03;;
43142;SDS011;28750;59.842;17.584;2022-12-18T16:29:51;7.00;;;2.13;;
43142;SDS011;28750;59.842;17.584;2022-12-18T16:32:19;12.45;;;2.17;;
43142;SDS011;28750;59.842;17.584;2022-12-18T16:34:47;7.15;;;1.85;;
43142;SDS011;28750;59.842;17.584;2022-12-18T16:37:14;4.05;;;1.67;;
43142;SDS011;28750;59.842;17.584;2022-12-18T16:39:42;7.15;;;1.52;;
43142;SDS011;28750;59.842;17.584;2022-12-18T16:42:13;12.35;;;2.67;;
43142;SDS011;28750;59.842;17.584;2022-12-18T16:44:45;9.85;;;2.33;;
43142;SDS011;28750;59.842;17.584;2022-12-18T16:47:15;4.18;;;1.30;;
43142;SDS011;28750;59.842;17.584;2022-12-18T16:49:43;12.50;;;2.08;;
43142;SDS011;28750;59.842;17.584;2022-12-18T16:52:10;6.00;;;1.77;;